Whitesville, NY (14897)

2:07 AM EST on March 04, 2015 (GMT -0500)
Elmer, PA | Change Station
CLOSE
Current Station
Personal Weather Station
Location: Pennsylvania, PA
Elevation: 1542 ft
Nearby Weather Stations

Elev 1542 ft 41.92 °N, 77.63 °W | Updated 29 seconds ago

Overcast
Overcast
40.8 °F
Feels Like 37 °F
N
5.0
Wind Variable Wind from NW
Gusts 7.0 mph

Today
High -- | Low -- °F
--% Chance of Precip.
Yesterday
High -- | Low -- °F
Precip. -- in
6:41 AM 6:04 PM
Waxing Gibbous, 98% visible
Pressure 29.75 in
Visibility 10.0 miles
Clouds Overcast 600 ft
Windchill 37 °F
Dew Point 36 °F
Humidity 82%
Rainfall 0.05 in
Snow Depth Not available.
UV 0 out of 12
Pollen .40 out of 12
Air Quality Not available.
Flu Activity Not available.
METAR KELZ 040656Z AUTO 28019G24KT 10SM OVC006 02/01 A2967 RMK AO2 RAB06E49 SLP072 P0000 T00220006

More Conditions Fewer Conditions

Pressure 29.75 in
Visibility 10.0 miles
Clouds Overcast 600 ft
Windchill 37 °F
Dew Point 36 °F
Humidity 82%
Rainfall 0.05 in
Snow Depth Not available.
UV 0 out of 12
Pollen .40 out of 12
Air Quality Not available.
Flu Activity Not available.
METAR KELZ 040656Z AUTO 28019G24KT 10SM OVC006 02/01 A2967 RMK AO2 RAB06E49 SLP072 P0000 T00220006

More Conditions Fewer Conditions

10-Day Weather Forecast

Almanac

Astronomy

Mar. 04, 2015 Rise Set
Actual Time
Civil Twilight
Nautical Twilight
Astronomical Twilight
Moon
Length of Visible Light
Length of Day
Tomorrow will be .
, % of the Moon is Illuminated

Today's Extremes

State Highs State Lows

Community

WunderPhotos

Upload Photos

1,802,402 photos uploaded!

WunderBlogs® & News

Nearby

Air Quality

  Air Quality AQ Index Pollutant
Not available.

Snow Depth

Station Depth Elevation

Earthquake Activity

City Distance Mag. Time & Date
Minimum magnitude displayed is 2.5.

Coastal Water Temperatures

Place Temperature

Nearby Weather Stations